Terminal Aerodrome Forecast
Issued by NWS Wakefield, VA

Home | Current Version | Previous Version | Text Only | Print | Product List | Glossary On
Versions: 1 2 3 4 5 6 7 8 9 10 11 12
000
FTUS41 KAKQ 261120
TAFRIC
TAF
KRIC 261120Z 2612/2712 VRB04KT P6SM SCT120
     FM261700 05004KT P6SM VCSH BKN100
     FM270000 VRB03KT P6SM BKN090=

USA.gov is the U.S. government's official web portal to all federal, state and local government web resources and services.